Time;durP1;ratioP1;P1;durP2;ratioP2;P2;SDS_P1;SDS_P2;PMS_P1;PMS_P2;Temp;Humidity;BMP_temperature;BMP_pressure;BME280_temperature;BME280_humidity;BME280_pressure;Samples;Min_cycle;Max_cycle;Signal;HPM_P1;HPM_P2
2022/06/30 00:00:45;;;;;;;4.00;3.43;;;20.50;89.80;;;;;;4980814;28;20464;-84
2022/06/30 00:03:13;;;;;;;3.83;3.40;;;20.50;89.90;;;;;;4980785;28;20454;-84
2022/06/30 00:05:43;;;;;;;5.00;3.27;;;20.40;90.00;;;;;;4980651;28;20513;-84
2022/06/30 00:08:11;;;;;;;4.20;3.57;;;20.40;90.00;;;;;;4982701;28;20908;-84
2022/06/30 00:10:40;;;;;;;4.57;3.50;;;20.40;90.10;;;;;;4981458;28;20449;-84
2022/06/30 00:13:08;;;;;;;3.47;3.17;;;20.40;90.10;;;;;;4981801;28;20878;-84
2022/06/30 00:15:37;;;;;;;3.93;3.27;;;20.40;90.20;;;;;;4983818;28;20445;-83
2022/06/30 00:18:06;;;;;;;3.80;3.50;;;20.40;90.20;;;;;;4981397;28;20543;-84
2022/06/30 00:20:36;;;;;;;3.53;2.97;;;20.30;90.20;;;;;;4981520;28;20882;-83
2022/06/30 00:23:05;;;;;;;4.13;3.00;;;20.30;90.30;;;;;;4981411;28;20548;-83
2022/06/30 00:25:33;;;;;;;4.00;3.33;;;20.30;90.30;;;;;;4982099;28;20477;-84
2022/06/30 00:28:01;;;;;;;4.73;3.30;;;20.30;90.30;;;;;;4981240;28;20485;-84
2022/06/30 00:30:30;;;;;;;3.70;3.40;;;20.30;90.40;;;;;;4983112;28;20508;-83
2022/06/30 00:32:58;;;;;;;3.77;3.47;;;20.30;90.40;;;;;;4982985;28;20509;-83
2022/06/30 00:35:26;;;;;;;3.80;3.50;;;20.30;90.40;;;;;;4980553;28;20536;-83
2022/06/30 00:37:54;;;;;;;3.50;3.20;;;20.30;90.40;;;;;;4979684;28;20441;-84
2022/06/30 00:40:24;;;;;;;3.33;3.03;;;20.30;90.40;;;;;;4981326;28;20462;-83
2022/06/30 00:42:52;;;;;;;4.13;3.67;;;20.30;90.40;;;;;;4980213;28;20454;-83
2022/06/30 00:45:20;;;;;;;3.57;3.27;;;20.20;90.40;;;;;;4981726;28;20450;-83
2022/06/30 00:47:49;;;;;;;3.70;3.40;;;20.20;90.40;;;;;;4982614;28;20524;-84
2022/06/30 00:50:17;;;;;;;4.80;3.63;;;20.20;90.40;;;;;;4982182;28;20441;-83
2022/06/30 00:52:48;;;;;;;3.03;2.83;;;20.20;90.40;;;;;;4980390;28;20484;-83
2022/06/30 00:55:17;;;;;;;3.33;3.03;;;20.20;90.40;;;;;;4979593;28;20450;-83
2022/06/30 00:57:49;;;;;;;3.73;3.43;;;20.20;90.40;;;;;;4980168;28;20512;-84
2022/06/30 01:00:17;;;;;;;3.77;3.40;;;20.10;90.40;;;;;;4980775;28;20485;-83
2022/06/30 01:02:46;;;;;;;3.60;3.30;;;20.10;90.40;;;;;;4981179;28;20462;-83
2022/06/30 01:05:15;;;;;;;3.63;3.33;;;20.10;90.50;;;;;;4981217;28;20445;-83
2022/06/30 01:07:44;;;;;;;3.33;3.03;;;20.10;90.50;;;;;;4983543;28;20469;-85
2022/06/30 01:13:00;;;;;;;3.70;3.40;;;20.00;90.80;;;;;;4985746;28;20445;-83
2022/06/30 01:15:28;;;;;;;3.83;3.50;;;20.00;90.50;;;;;;4985073;28;20453;-84
2022/06/30 01:17:56;;;;;;;3.80;3.27;;;19.90;90.50;;;;;;4983575;28;20454;-84
2022/06/30 01:20:30;;;;;;;3.53;3.23;;;20.00;90.60;;;;;;4985675;28;20524;-83
2022/06/30 01:23:01;;;;;;;5.87;3.90;;;19.90;90.60;;;;;;4982918;28;20450;-83
2022/06/30 01:25:30;;;;;;;3.10;2.90;;;19.90;90.60;;;;;;4982824;28;20477;-83
2022/06/30 01:27:58;;;;;;;4.00;3.60;;;19.90;90.70;;;;;;4983153;28;20544;-84
2022/06/30 01:30:27;;;;;;;3.90;3.50;;;19.90;90.70;;;;;;4984706;28;20450;-83
2022/06/30 01:32:55;;;;;;;3.80;3.50;;;19.80;90.70;;;;;;4983322;28;20467;-83
2022/06/30 01:35:23;;;;;;;4.10;3.80;;;19.80;90.80;;;;;;4982253;28;20455;-83
2022/06/30 01:37:54;;;;;;;3.93;3.63;;;19.80;90.80;;;;;;4981864;28;20967;-84
2022/06/30 01:40:26;;;;;;;3.70;3.40;;;19.70;90.80;;;;;;4982819;28;20437;-83
2022/06/30 01:42:55;;;;;;;3.97;3.60;;;19.70;90.90;;;;;;4982150;28;20457;-83
2022/06/30 01:45:23;;;;;;;4.33;3.40;;;19.70;90.90;;;;;;4983032;28;20855;-83
2022/06/30 01:47:52;;;;;;;4.03;3.73;;;19.70;90.90;;;;;;4981129;28;20819;-83
2022/06/30 01:50:24;;;;;;;3.87;3.43;;;19.60;91.20;;;;;;4983492;28;20600;-83
2022/06/30 01:52:52;;;;;;;3.70;3.30;;;19.60;91.00;;;;;;4988025;28;20437;-85
2022/06/30 01:55:20;;;;;;;3.77;3.43;;;19.60;91.00;;;;;;4985147;28;20477;-84
2022/06/30 01:57:51;;;;;;;4.27;3.70;;;19.50;91.10;;;;;;4984494;28;20452;-85
2022/06/30 02:00:23;;;;;;;3.67;3.37;;;19.50;91.10;;;;;;4983077;28;20453;-84
2022/06/30 02:02:53;;;;;;;4.17;3.30;;;19.50;91.10;;;;;;4982566;28;20501;-83
2022/06/30 02:05:21;;;;;;;4.63;3.40;;;19.50;91.10;;;;;;4984816;28;20472;-83
2022/06/30 02:07:50;;;;;;;4.37;3.97;;;19.40;91.10;;;;;;4983291;28;20453;-84
2022/06/30 02:10:20;;;;;;;4.00;3.70;;;19.40;91.20;;;;;;4982599;28;20489;-84
2022/06/30 02:12:51;;;;;;;3.63;3.33;;;19.40;91.20;;;;;;4981871;28;20947;-83
2022/06/30 02:15:22;;;;;;;4.03;3.60;;;19.30;91.50;;;;;;4981333;28;20784;-83
2022/06/30 02:17:52;;;;;;;4.97;3.90;;;19.30;91.20;;;;;;4983972;28;20433;-84
2022/06/30 02:20:23;;;;;;;4.23;3.83;;;19.30;91.20;;;;;;4986671;28;20425;-83
2022/06/30 02:22:55;;;;;;;4.67;4.27;;;19.30;91.30;;;;;;4984597;28;20449;-83
2022/06/30 02:25:24;;;;;;;4.20;3.80;;;19.30;91.30;;;;;;4984928;28;20939;-83
2022/06/30 02:27:54;;;;;;;4.00;3.60;;;19.20;91.30;;;;;;4985393;28;20460;-84
2022/06/30 02:30:24;;;;;;;4.10;3.63;;;19.20;91.30;;;;;;4985421;28;20501;-83
2022/06/30 02:32:52;;;;;;;4.23;3.83;;;19.20;91.40;;;;;;4986225;28;20481;-83
2022/06/30 02:35:21;;;;;;;5.17;3.67;;;19.10;91.40;;;;;;4986316;28;20481;-83
2022/06/30 02:37:50;;;;;;;4.17;3.77;;;19.10;91.40;;;;;;4986250;28;20530;-84
2022/06/30 02:40:19;;;;;;;4.83;3.83;;;19.10;91.50;;;;;;4985533;28;20457;-83
2022/06/30 02:42:47;;;;;;;4.47;3.37;;;19.00;91.50;;;;;;4984477;28;20445;-84
2022/06/30 02:45:16;;;;;;;3.90;3.60;;;19.00;91.60;;;;;;4984476;28;20453;-83
2022/06/30 02:47:45;;;;;;;4.07;3.67;;;19.00;91.60;;;;;;4983364;28;21021;-83
2022/06/30 02:50:14;;;;;;;4.90;4.33;;;19.00;91.70;;;;;;4983670;28;20999;-83
2022/06/30 02:52:43;;;;;;;4.20;3.90;;;19.00;91.70;;;;;;4983828;28;20441;-83
2022/06/30 02:55:12;;;;;;;4.63;3.87;;;18.90;91.70;;;;;;4983712;28;20534;-83
2022/06/30 02:57:41;;;;;;;4.63;4.23;;;18.90;91.80;;;;;;4984725;28;20461;-83
2022/06/30 03:00:11;;;;;;;4.80;4.20;;;18.90;91.80;;;;;;4983256;28;20458;-83
2022/06/30 03:02:41;;;;;;;5.63;4.00;;;18.90;91.80;;;;;;4981474;28;20438;-84
2022/06/30 03:05:10;;;;;;;4.80;4.07;;;18.90;91.90;;;;;;4977553;28;20501;-84
2022/06/30 03:07:39;;;;;;;4.20;3.80;;;18.80;91.90;;;;;;4977024;28;20449;-84
2022/06/30 03:10:07;;;;;;;5.60;4.13;;;18.80;92.00;;;;;;4977416;28;20481;-84
2022/06/30 03:12:37;;;;;;;4.50;4.10;;;18.80;92.00;;;;;;4981342;28;20481;-83
2022/06/30 03:15:07;;;;;;;4.53;4.13;;;18.80;92.10;;;;;;4987843;28;20464;-83
2022/06/30 03:17:35;;;;;;;5.80;4.27;;;18.70;92.10;;;;;;4987390;28;20485;-83
2022/06/30 03:20:05;;;;;;;4.70;4.30;;;18.70;92.10;;;;;;4978710;28;20466;-83
2022/06/30 03:22:34;;;;;;;4.60;4.20;;;18.70;92.20;;;;;;4979483;28;20426;-83
2022/06/30 03:25:02;;;;;;;4.03;3.70;;;18.70;92.30;;;;;;4978678;28;20502;-84
2022/06/30 03:27:30;;;;;;;5.10;4.60;;;18.70;92.30;;;;;;4977654;28;20444;-84
2022/06/30 03:29:58;;;;;;;6.83;5.20;;;18.70;92.40;;;;;;4977666;28;20874;-84
2022/06/30 03:32:27;;;;;;;8.77;6.30;;;18.70;92.40;;;;;;4977278;28;20818;-84
2022/06/30 03:34:55;;;;;;;14.03;11.37;;;18.70;92.40;;;;;;4977444;28;20481;-83
2022/06/30 03:37:31;;;;;;;10.13;8.20;;;18.60;92.40;;;;;;4977507;28;20437;-84
2022/06/30 03:39:59;;;;;;;7.47;6.77;;;18.60;92.50;;;;;;4977007;28;20513;-84
2022/06/30 03:42:28;;;;;;;7.97;7.27;;;18.60;92.50;;;;;;4977490;28;20454;-84
2022/06/30 03:44:56;;;;;;;9.77;7.40;;;18.60;92.60;;;;;;4977861;28;20457;-84
2022/06/30 03:47:24;;;;;;;10.03;8.97;;;18.50;92.60;;;;;;4977122;28;20536;-84
2022/06/30 03:49:52;;;;;;;7.20;6.50;;;18.60;92.70;;;;;;4978301;28;20934;-84
2022/06/30 03:52:21;;;;;;;9.43;7.20;;;18.50;92.70;;;;;;4976395;28;20453;-83
2022/06/30 03:54:50;;;;;;;6.73;5.67;;;18.50;92.80;;;;;;4976896;28;20541;-84
2022/06/30 03:57:19;;;;;;;6.03;5.37;;;18.50;92.90;;;;;;4976686;28;20515;-84
2022/06/30 03:59:47;;;;;;;7.30;5.87;;;18.50;93.20;;;;;;4976295;28;20528;-84
2022/06/30 04:02:15;;;;;;;5.10;4.60;;;18.50;93.00;;;;;;4977198;28;20488;-84
2022/06/30 04:04:44;;;;;;;5.93;5.47;;;18.40;93.00;;;;;;4976263;28;20453;-84
2022/06/30 04:07:12;;;;;;;5.20;4.70;;;18.40;93.10;;;;;;4977077;28;20449;-84
2022/06/30 04:09:40;;;;;;;8.27;5.33;;;18.40;93.10;;;;;;4975821;28;20506;-84
2022/06/30 04:12:13;;;;;;;4.87;4.47;;;18.40;93.20;;;;;;4976293;28;20446;-84
2022/06/30 04:14:42;;;;;;;5.80;5.30;;;18.40;93.20;;;;;;4976739;28;20457;-84
2022/06/30 04:17:10;;;;;;;6.17;5.67;;;18.40;93.30;;;;;;4976818;28;20556;-83
2022/06/30 04:19:39;;;;;;;5.50;5.00;;;18.40;93.40;;;;;;4978365;28;20486;-83
2022/06/30 04:22:07;;;;;;;5.23;4.73;;;18.40;93.40;;;;;;4975839;28;20458;-83
2022/06/30 04:24:35;;;;;;;6.00;5.40;;;18.40;93.50;;;;;;4976575;28;20457;-84
2022/06/30 04:27:04;;;;;;;5.63;5.03;;;18.40;93.60;;;;;;4975868;28;20787;-84
2022/06/30 04:29:33;;;;;;;6.80;5.50;;;18.40;93.70;;;;;;4975726;28;20576;-84
2022/06/30 04:35:02;;;;;;;6.33;5.83;;;18.40;93.80;;;;;;4956783;29;20566;-83
2022/06/30 04:37:30;;;;;;;5.90;5.33;;;18.40;93.90;;;;;;4956730;29;20944;-84
2022/06/30 04:42:40;;;;;;;6.53;5.57;;;18.40;94.00;;;;;;4976737;28;20449;-84
2022/06/30 04:45:13;;;;;;;6.83;6.23;;;18.50;94.10;;;;;;4977768;28;20461;-84
2022/06/30 04:47:42;;;;;;;11.00;5.90;;;18.50;94.20;;;;;;4976390;28;20453;-84
2022/06/30 04:50:11;;;;;;;6.20;5.50;;;18.50;94.20;;;;;;4975026;28;20473;-84
2022/06/30 04:52:39;;;;;;;9.83;5.87;;;18.50;94.20;;;;;;4975919;28;20461;-83
2022/06/30 04:55:08;;;;;;;6.03;5.03;;;18.50;94.30;;;;;;4976546;28;20450;-83
2022/06/30 04:57:37;;;;;;;6.27;5.57;;;18.50;94.30;;;;;;4978049;28;20441;-83
2022/06/30 05:00:07;;;;;;;9.97;6.40;;;18.50;94.30;;;;;;4976020;28;20906;-83
2022/06/30 05:02:37;;;;;;;5.77;5.37;;;18.50;94.40;;;;;;4977316;28;20438;-84
2022/06/30 05:05:06;;;;;;;7.20;5.87;;;18.60;94.50;;;;;;4976992;28;20797;-84
2022/06/30 05:07:35;;;;;;;6.67;6.13;;;18.60;94.60;;;;;;4985817;28;20950;-83
2022/06/30 05:10:03;;;;;;;7.03;5.47;;;18.60;94.70;;;;;;4985008;28;20477;-83
2022/06/30 05:12:31;;;;;;;6.20;5.70;;;18.70;94.70;;;;;;4983797;28;20453;-83
2022/06/30 05:15:00;;;;;;;5.93;5.43;;;18.70;94.80;;;;;;4986048;28;20460;-83
2022/06/30 05:17:28;;;;;;;6.83;5.23;;;18.70;94.80;;;;;;4985769;28;20454;-82
2022/06/30 05:19:58;;;;;;;5.90;5.13;;;18.70;94.90;;;;;;4983240;28;20470;-83
2022/06/30 05:22:26;;;;;;;6.10;5.60;;;18.80;94.90;;;;;;4983326;28;20432;-83
2022/06/30 05:27:40;;;;;;;5.47;5.07;;;18.80;95.00;;;;;;4981951;28;20453;-83
2022/06/30 05:30:10;;;;;;;6.33;5.83;;;18.90;95.10;;;;;;4981509;28;20855;-82
2022/06/30 05:32:39;;;;;;;6.13;5.60;;;18.90;95.10;;;;;;4982557;28;20434;-83
2022/06/30 05:35:10;;;;;;;6.27;5.57;;;19.00;95.10;;;;;;4982032;28;20548;-82
2022/06/30 05:37:39;;;;;;;5.50;5.00;;;19.10;95.20;;;;;;4982890;28;20908;-82
2022/06/30 05:40:08;;;;;;;6.93;5.70;;;19.20;95.20;;;;;;4982955;28;20480;-82
2022/06/30 05:42:37;;;;;;;6.07;5.40;;;19.30;95.20;;;;;;4981564;28;20460;-82
2022/06/30 05:45:06;;;;;;;7.17;5.03;;;19.50;95.20;;;;;;4980617;28;20445;-83
2022/06/30 05:47:35;;;;;;;5.33;4.83;;;19.70;95.20;;;;;;4981072;28;20457;-82
2022/06/30 05:50:04;;;;;;;5.20;4.80;;;19.90;95.30;;;;;;4981330;28;20477;-82
2022/06/30 05:52:33;;;;;;;5.70;5.20;;;20.20;95.40;;;;;;4984255;28;20457;-82
2022/06/30 05:55:01;;;;;;;7.00;5.70;;;20.40;95.40;;;;;;4986490;28;20973;-82
2022/06/30 05:57:30;;;;;;;5.90;5.20;;;20.70;95.40;;;;;;4985066;28;20451;-82
2022/06/30 05:59:58;;;;;;;7.40;6.70;;;20.90;95.20;;;;;;4985838;28;20558;-82
2022/06/30 06:02:27;;;;;;;11.33;8.53;;;21.20;95.20;;;;;;4987821;28;20449;-82
2022/06/30 06:04:56;;;;;;;5.90;5.30;;;21.50;95.20;;;;;;4988768;28;20541;-82
2022/06/30 06:07:24;;;;;;;6.97;5.10;;;21.80;95.10;;;;;;4988668;28;20449;-82
2022/06/30 06:09:54;;;;;;;5.87;4.90;;;22.00;95.30;;;;;;4988717;28;20465;-82
2022/06/30 06:12:23;;;;;;;7.90;5.67;;;22.30;95.00;;;;;;4986681;28;20485;-82
2022/06/30 06:14:52;;;;;;;5.20;4.70;;;22.60;94.90;;;;;;4987378;28;20433;-82
2022/06/30 06:17:20;;;;;;;5.00;4.50;;;22.80;94.70;;;;;;4989089;28;20445;-82
2022/06/30 06:19:49;;;;;;;4.80;4.40;;;23.10;94.60;;;;;;4987991;28;20536;-82
2022/06/30 06:22:17;;;;;;;6.10;5.53;;;23.30;94.70;;;;;;4988306;28;20441;-82
2022/06/30 06:24:45;;;;;;;5.50;5.00;;;23.60;94.60;;;;;;4985879;28;20473;-82
2022/06/30 06:27:15;;;;;;;5.20;4.73;;;23.80;94.30;;;;;;4985863;28;20462;-83
2022/06/30 06:29:43;;;;;;;5.67;5.07;;;24.00;94.30;;;;;;4988969;28;20469;-81
2022/06/30 06:32:12;;;;;;;5.23;4.83;;;24.20;94.30;;;;;;4987799;28;20473;-83
2022/06/30 06:34:42;;;;;;;5.67;5.00;;;24.40;94.20;;;;;;4989920;28;20521;-82
2022/06/30 06:37:10;;;;;;;4.90;4.50;;;24.60;94.10;;;;;;4990839;28;20430;-81
2022/06/30 06:39:39;;;;;;;6.97;5.00;;;24.80;94.00;;;;;;4990394;28;20480;-82
2022/06/30 06:42:08;;;;;;;5.30;4.90;;;25.00;94.00;;;;;;4990115;28;20461;-82
2022/06/30 06:44:41;;;;;;;5.33;4.83;;;25.20;94.00;;;;;;4990059;28;20442;-82
2022/06/30 06:47:10;;;;;;;7.67;6.87;;;25.40;93.90;;;;;;4995672;28;20456;-82
2022/06/30 06:49:39;;;;;;;8.07;7.27;;;25.50;93.80;;;;;;4992502;28;20524;-82
2022/06/30 06:52:08;;;;;;;5.73;5.23;;;25.70;93.80;;;;;;5006391;28;20468;-82
2022/06/30 06:54:36;;;;;;;5.70;5.10;;;25.70;93.70;;;;;;5004481;28;20469;-82
2022/06/30 06:57:05;;;;;;;5.70;5.30;;;25.80;93.70;;;;;;5011860;28;20457;-82
2022/06/30 06:59:36;;;;;;;6.17;5.67;;;25.80;93.90;;;;;;5017660;28;20449;-82
2022/06/30 07:02:07;;;;;;;6.03;5.60;;;25.80;93.60;;;;;;5019104;28;20429;-84
2022/06/30 07:04:35;;;;;;;5.97;5.33;;;25.80;93.60;;;;;;5017823;28;20443;-83
2022/06/30 07:07:04;;;;;;;6.20;5.70;;;25.90;93.70;;;;;;5018395;28;20441;-83
2022/06/30 07:09:34;;;;;;;6.20;5.70;;;26.00;93.80;;;;;;5017740;28;20492;-82
2022/06/30 07:12:03;;;;;;;6.23;5.80;;;26.10;93.70;;;;;;5017577;28;20457;-83
2022/06/30 07:14:31;;;;;;;6.00;5.40;;;26.20;93.70;;;;;;5014940;28;20484;-83
2022/06/30 07:16:59;;;;;;;6.20;5.70;;;26.30;93.50;;;;;;5016059;28;20528;-83
2022/06/30 07:19:30;;;;;;;7.17;6.57;;;26.40;93.50;;;;;;5017019;28;20473;-83
2022/06/30 07:21:58;;;;;;;6.13;5.53;;;26.50;93.60;;;;;;5016304;28;20464;-83
2022/06/30 07:24:27;;;;;;;7.27;6.57;;;26.70;93.60;;;;;;5014968;28;20448;-83
2022/06/30 07:26:55;;;;;;;8.07;7.17;;;26.90;93.60;;;;;;5010795;28;20445;-81
2022/06/30 07:29:24;;;;;;;8.27;7.47;;;27.00;93.40;;;;;;5007030;28;20468;-81
2022/06/30 07:31:53;;;;;;;7.07;6.57;;;27.20;93.10;;;;;;5006052;28;20482;-82
2022/06/30 07:34:22;;;;;;;7.00;6.30;;;27.20;93.20;;;;;;5007859;28;20457;-81
2022/06/30 07:36:52;;;;;;;6.70;6.20;;;27.30;92.80;;;;;;5014282;28;20463;-82
2022/06/30 07:39:20;;;;;;;7.00;6.40;;;27.30;92.90;;;;;;5016597;28;20495;-82
2022/06/30 07:41:49;;;;;;;7.30;6.77;;;27.40;92.80;;;;;;5016437;28;20456;-83
2022/06/30 07:44:17;;;;;;;7.53;6.87;;;27.40;92.60;;;;;;5014307;28;20463;-80
2022/06/30 07:46:46;;;;;;;7.40;6.80;;;27.50;92.60;;;;;;5006743;28;20453;-86
2022/06/30 07:49:14;;;;;;;7.30;6.60;;;27.50;92.80;;;;;;5010192;28;20468;-87
2022/06/30 07:51:43;;;;;;;11.50;10.50;;;27.60;92.90;;;;;;5010166;28;20505;-86
2022/06/30 07:54:13;;;;;;;10.00;9.10;;;27.80;92.90;;;;;;5008083;28;20457;-86
2022/06/30 07:56:41;;;;;;;7.43;6.80;;;27.90;92.90;;;;;;5010472;28;20459;-85
2022/06/30 07:59:10;;;;;;;6.80;6.20;;;28.00;92.80;;;;;;4997031;28;20500;-87
2022/06/30 08:01:38;;;;;;;7.77;7.00;;;28.10;92.80;;;;;;4997921;28;20447;-85
2022/06/30 08:04:06;;;;;;;8.00;7.40;;;28.20;93.00;;;;;;4999433;28;20448;-85
2022/06/30 08:06:35;;;;;;;8.70;7.43;;;28.30;92.80;;;;;;4998911;28;20457;-86
2022/06/30 08:09:04;;;;;;;7.17;6.60;;;28.40;92.80;;;;;;4999976;28;20503;-86
2022/06/30 08:11:34;;;;;;;7.00;6.37;;;28.50;92.70;;;;;;5015434;28;20479;-85
2022/06/30 08:14:02;;;;;;;7.87;7.27;;;28.60;92.70;;;;;;5012995;28;20444;-85
2022/06/30 08:16:31;;;;;;;7.30;6.73;;;28.70;92.60;;;;;;5012251;28;20441;-85
2022/06/30 08:19:03;;;;;;;7.17;6.57;;;28.80;92.40;;;;;;5008919;28;20464;-85
2022/06/30 08:21:32;;;;;;;7.50;7.00;;;28.90;92.20;;;;;;5007515;28;20421;-87
2022/06/30 08:24:00;;;;;;;7.20;6.60;;;28.90;92.00;;;;;;5010686;28;20449;-85
2022/06/30 08:26:28;;;;;;;7.03;6.40;;;29.00;92.20;;;;;;5009914;28;20457;-86
2022/06/30 08:28:58;;;;;;;6.83;6.23;;;29.00;91.90;;;;;;5008656;28;20444;-86
2022/06/30 08:31:27;;;;;;;11.80;8.30;;;29.10;91.90;;;;;;5012108;28;20448;-85
2022/06/30 08:33:56;;;;;;;10.20;9.30;;;29.20;91.90;;;;;;5014111;28;20476;-86
2022/06/30 08:36:25;;;;;;;8.40;6.70;;;29.30;91.80;;;;;;5013029;28;20567;-86
2022/06/30 08:38:53;;;;;;;7.70;7.00;;;29.40;91.60;;;;;;5007496;28;20496;-86
2022/06/30 08:44:09;;;;;;;7.00;6.23;;;29.40;90.90;;;;;;5004814;28;20491;-85
2022/06/30 08:46:39;;;;;;;6.17;5.67;;;29.40;90.70;;;;;;5009456;28;20432;-87
2022/06/30 08:49:08;;;;;;;6.53;6.03;;;29.30;90.70;;;;;;5006417;28;20467;-86
2022/06/30 08:51:37;;;;;;;7.00;6.40;;;29.30;90.70;;;;;;5004994;28;20856;-87
2022/06/30 08:54:08;;;;;;;6.47;5.97;;;29.40;90.60;;;;;;4999350;28;20444;-86
2022/06/30 08:56:37;;;;;;;8.10;7.40;;;29.40;90.70;;;;;;4998233;28;20445;-87
2022/06/30 08:59:06;;;;;;;8.07;7.47;;;29.50;90.70;;;;;;4999403;28;20555;-86
2022/06/30 09:01:36;;;;;;;7.57;7.07;;;29.50;90.40;;;;;;4999766;28;20516;-87
2022/06/30 09:04:07;;;;;;;8.43;7.83;;;29.60;90.30;;;;;;4999520;28;20536;-87
2022/06/30 09:06:35;;;;;;;7.00;6.50;;;29.50;90.00;;;;;;4998886;28;20447;-86
2022/06/30 09:09:06;;;;;;;7.20;6.60;;;29.50;90.10;;;;;;5000310;28;20651;-86
2022/06/30 09:11:49;;;;;;;7.27;6.53;;;29.50;90.10;;;;;;5000316;28;20785;-86
2022/06/30 09:14:38;;;;;;;8.10;7.40;;;29.50;90.00;;;;;;4999368;28;20440;-88
2022/06/30 09:17:10;;;;;;;8.07;7.27;;;29.50;90.20;;;;;;4999884;28;20469;-86
2022/06/30 09:19:52;;;;;;;7.13;6.53;;;29.60;90.20;;;;;;5000052;28;20838;-87
2022/06/30 09:22:22;;;;;;;7.73;6.97;;;29.60;89.50;;;;;;4997946;28;20526;-86
2022/06/30 09:24:56;;;;;;;6.20;5.80;;;29.60;89.40;;;;;;5000208;28;20428;-86
2022/06/30 09:27:26;;;;;;;6.57;6.07;;;29.60;89.30;;;;;;5003678;28;20448;-87
2022/06/30 09:29:59;;;;;;;7.60;7.10;;;29.60;89.30;;;;;;5004287;28;20519;-85
2022/06/30 09:32:49;;;;;;;7.10;6.50;;;29.70;89.50;;;;;;5005049;28;20471;-87
2022/06/30 09:35:18;;;;;;;8.10;7.33;;;29.80;89.40;;;;;;5004549;28;20479;-84
2022/06/30 09:37:56;;;;;;;6.50;6.00;;;29.80;89.40;;;;;;5005184;28;20973;-86
2022/06/30 09:40:30;;;;;;;6.63;6.03;;;29.90;89.30;;;;;;5005163;28;20462;-86
2022/06/30 09:42:58;;;;;;;6.50;6.00;;;30.00;89.00;;;;;;5004549;28;20926;-86
2022/06/30 09:45:41;;;;;;;8.77;6.73;;;30.10;88.90;;;;;;5007050;28;20432;-86
2022/06/30 09:48:12;;;;;;;6.23;5.80;;;30.10;88.50;;;;;;5007291;28;21001;-86
2022/06/30 09:50:41;;;;;;;5.93;5.53;;;30.20;88.50;;;;;;5011140;28;20456;-85
2022/06/30 09:53:12;;;;;;;6.80;6.10;;;30.20;88.40;;;;;;5008825;28;20536;-85
2022/06/30 09:55:43;;;;;;;6.43;5.87;;;30.20;88.30;;;;;;5007540;28;20447;-85
2022/06/30 09:58:16;;;;;;;7.40;6.63;;;30.20;87.90;;;;;;5006122;28;20480;-86
2022/06/30 10:00:50;;;;;;;7.23;6.63;;;30.30;87.60;;;;;;5007137;28;20464;-86
2022/06/30 10:03:21;;;;;;;6.50;6.10;;;30.30;87.30;;;;;;5008934;28;20475;-85
2022/06/30 10:06:06;;;;;;;6.10;5.60;;;30.30;87.00;;;;;;5007528;28;20430;-86
2022/06/30 10:08:37;;;;;;;6.73;6.23;;;30.30;86.90;;;;;;5006047;28;20506;-86
2022/06/30 10:11:10;;;;;;;6.40;6.00;;;30.30;86.50;;;;;;5006081;28;20448;-86
2022/06/30 10:13:42;;;;;;;6.57;5.97;;;30.20;86.10;;;;;;5006358;28;20467;-86
2022/06/30 10:16:12;;;;;;;6.50;6.00;;;30.20;86.50;;;;;;5007249;28;20855;-86
2022/06/30 10:18:42;;;;;;;7.40;6.73;;;30.20;86.60;;;;;;5004606;28;20473;-86
2022/06/30 10:21:10;;;;;;;6.67;6.07;;;30.20;86.90;;;;;;5006394;28;20972;-86
2022/06/30 10:23:40;;;;;;;6.67;6.17;;;30.20;86.30;;;;;;5007426;28;20503;-86
2022/06/30 10:27:11;;;;;;;6.90;6.40;;;30.20;86.10;;;;;;5009714;28;20448;-86
2022/06/30 10:28:57;;;;;;;6.00;5.60;;;30.20;86.30;;;;;;5007007;28;20476;-85
2022/06/30 10:31:38;;;;;;;7.63;7.13;;;30.30;86.80;;;;;;5013748;28;20909;-85
2022/06/30 10:34:16;;;;;;;8.07;6.83;;;30.30;86.50;;;;;;5012249;28;20486;-83
2022/06/30 10:36:58;;;;;;;6.20;5.70;;;30.30;86.40;;;;;;5012131;28;20437;-84
2022/06/30 10:39:37;;;;;;;7.20;6.70;;;30.30;86.20;;;;;;5002877;28;20486;-83
2022/06/30 10:42:06;;;;;;;6.07;5.60;;;30.30;86.30;;;;;;5007736;28;20444;-85
2022/06/30 10:44:34;;;;;;;6.30;5.80;;;30.40;86.40;;;;;;5009107;28;20441;-85
2022/06/30 10:47:07;;;;;;;6.40;5.90;;;30.40;86.70;;;;;;5008955;28;20942;-84
2022/06/30 10:49:53;;;;;;;5.97;5.57;;;30.50;86.90;;;;;;5007239;28;20460;-84
2022/06/30 10:52:24;;;;;;;6.27;5.67;;;30.50;86.60;;;;;;5007896;28;20425;-84
2022/06/30 10:55:06;;;;;;;7.10;6.50;;;30.60;86.60;;;;;;5006180;28;20476;-84
2022/06/30 10:58:00;;;;;;;6.03;5.63;;;30.60;86.90;;;;;;5007025;28;20456;-83
2022/06/30 11:00:59;;;;;;;6.90;6.20;;;30.60;86.10;;;;;;5007755;28;20461;-85
2022/06/30 11:03:58;;;;;;;6.00;5.50;;;30.60;85.90;;;;;;5006076;28;20532;-84
2022/06/30 11:06:58;;;;;;;7.40;6.70;;;30.60;86.10;;;;;;5005813;28;20974;-85
2022/06/30 11:10:06;;;;;;;9.80;9.10;;;30.70;86.20;;;;;;5008777;28;20488;-84
2022/06/30 11:12:55;;;;;;;7.03;6.43;;;30.70;85.80;;;;;;5010924;28;20432;-85
2022/06/30 11:15:43;;;;;;;6.90;5.87;;;30.70;85.40;;;;;;5010419;28;20421;-85
2022/06/30 11:18:12;;;;;;;7.30;6.60;;;30.70;85.40;;;;;;5000670;28;20468;-83
2022/06/30 11:20:44;;;;;;;8.90;8.30;;;30.80;85.30;;;;;;4997051;28;20535;-83
2022/06/30 11:23:14;;;;;;;7.13;6.43;;;30.70;85.00;;;;;;4998474;28;20449;-83
2022/06/30 11:28:34;;;;;;;6.40;5.93;;;30.80;85.00;;;;;;5001885;28;20519;-83
2022/06/30 11:31:02;;;;;;;6.50;5.87;;;30.80;84.40;;;;;;5001893;28;20470;-83
2022/06/30 11:33:31;;;;;;;6.30;5.87;;;30.80;84.40;;;;;;5000782;28;20920;-83
2022/06/30 11:36:07;;;;;;;6.40;6.00;;;30.70;84.20;;;;;;4999102;28;20463;-83
2022/06/30 11:38:37;;;;;;;7.87;7.07;;;30.80;84.20;;;;;;4997687;28;20483;-84
2022/06/30 11:43:53;;;;;;;7.07;6.50;;;30.80;84.10;;;;;;5001895;28;20429;-81
2022/06/30 11:46:21;;;;;;;7.27;6.77;;;30.80;84.10;;;;;;5001793;28;20527;-81
2022/06/30 11:48:50;;;;;;;7.47;6.77;;;30.80;83.90;;;;;;5000565;28;20469;-82
2022/06/30 11:51:18;;;;;;;8.93;5.80;;;30.80;83.80;;;;;;5002731;28;20889;-82
2022/06/30 11:53:49;;;;;;;6.23;5.63;;;30.80;83.70;;;;;;5003427;28;21025;-82
2022/06/30 11:56:24;;;;;;;6.30;5.90;;;30.80;83.40;;;;;;5002514;28;20428;-82
2022/06/30 11:58:52;;;;;;;7.17;6.67;;;30.80;83.40;;;;;;4999287;28;20481;-81
2022/06/30 12:01:20;;;;;;;6.40;6.00;;;30.80;83.40;;;;;;5000901;28;20464;-81
2022/06/30 12:03:48;;;;;;;7.40;6.70;;;30.80;83.20;;;;;;5000303;28;20480;-82
2022/06/30 12:06:17;;;;;;;6.70;6.20;;;30.70;83.10;;;;;;5001696;28;20454;-82
2022/06/30 12:08:51;;;;;;;6.23;5.70;;;30.80;83.40;;;;;;4999753;28;20480;-81
2022/06/30 12:11:20;;;;;;;6.80;5.37;;;30.80;83.20;;;;;;5002180;28;20443;-82
2022/06/30 12:13:48;;;;;;;6.63;5.87;;;30.70;82.90;;;;;;5001430;28;20480;-82
2022/06/30 12:16:19;;;;;;;6.77;6.27;;;30.70;82.90;;;;;;5000463;28;20813;-81
2022/06/30 12:18:47;;;;;;;5.60;5.10;;;30.70;82.80;;;;;;5001960;28;20523;-81
2022/06/30 12:21:16;;;;;;;5.87;5.47;;;30.60;82.60;;;;;;5003437;28;20472;-82
2022/06/30 12:23:45;;;;;;;6.47;5.97;;;30.60;82.60;;;;;;5003189;28;20444;-82
2022/06/30 12:26:22;;;;;;;6.17;5.67;;;30.60;83.20;;;;;;5000127;28;20483;-82
2022/06/30 12:28:55;;;;;;;6.20;5.70;;;30.60;82.50;;;;;;5000707;28;21001;-81
2022/06/30 12:31:24;;;;;;;6.53;6.03;;;30.60;82.80;;;;;;5001666;28;20425;-81
2022/06/30 12:33:54;;;;;;;6.90;6.30;;;30.60;82.60;;;;;;5002376;28;20465;-82
2022/06/30 12:36:24;;;;;;;6.57;6.10;;;30.60;82.40;;;;;;5000216;28;20451;-82
2022/06/30 12:38:52;;;;;;;7.03;6.50;;;30.60;82.20;;;;;;5000514;28;20503;-82
2022/06/30 12:41:23;;;;;;;5.87;5.37;;;30.60;82.30;;;;;;5001171;28;20455;-82
2022/06/30 12:43:53;;;;;;;6.70;6.20;;;30.60;82.40;;;;;;5001312;28;20441;-82
2022/06/30 12:46:21;;;;;;;6.17;5.67;;;30.70;82.30;;;;;;5003310;28;20445;-82
2022/06/30 12:48:53;;;;;;;5.47;4.97;;;30.70;82.30;;;;;;5004601;28;20461;-83
2022/06/30 12:51:40;;;;;;;6.00;5.60;;;30.70;82.30;;;;;;5006570;28;20449;-83
2022/06/30 12:54:10;;;;;;;6.87;5.60;;;30.80;81.70;;;;;;5011641;28;20457;-83
2022/06/30 12:56:50;;;;;;;6.30;5.90;;;30.70;82.10;;;;;;5011403;28;20448;-84
2022/06/30 12:59:19;;;;;;;6.23;5.73;;;30.70;82.00;;;;;;5008872;28;20480;-83
2022/06/30 13:01:54;;;;;;;6.77;6.27;;;30.80;81.80;;;;;;5006911;28;20437;-83
2022/06/30 13:04:23;;;;;;;6.50;6.00;;;30.70;81.50;;;;;;5007962;28;20448;-83
2022/06/30 13:06:54;;;;;;;5.73;5.33;;;30.70;81.40;;;;;;5006319;28;20495;-83
2022/06/30 13:09:26;;;;;;;6.40;5.90;;;30.70;81.50;;;;;;5012676;28;20465;-83
2022/06/30 13:11:57;;;;;;;6.90;6.40;;;30.70;81.40;;;;;;5010975;28;20449;-84
2022/06/30 13:14:27;;;;;;;5.87;5.43;;;30.70;81.50;;;;;;5010227;28;20464;-84
2022/06/30 13:16:56;;;;;;;6.20;5.80;;;30.80;81.30;;;;;;5005705;28;20437;-81
2022/06/30 13:19:25;;;;;;;5.90;5.50;;;30.70;80.80;;;;;;5000165;28;20489;-82
2022/06/30 13:21:54;;;;;;;6.20;5.70;;;30.60;80.50;;;;;;5000567;28;20475;-82